Terminal Aerodrome Forecast
Issued by NWS Cleveland, OH

Home | Current Version | Previous Version | Graphics & Text | Print | Product List | Glossary On
Versions: 1 2 3 4 5 6 7 8 9 10 11 12
000
FTUS41 KCLE 181100
TAFMFD
TAF
KMFD 181130Z 1812/1912 18008KT P6SM SCT120 BKN200
     FM181600 27008KT P6SM VCSH SCT040 OVC100
     FM182200 32010KT P6SM SCT100 BKN200
     FM190200 36006KT P6SM BKN200=

USA.gov is the U.S. government's official web portal to all federal, state and local government web resources and services.